createdAt,value
2018-11-25T00:00:04.479Z,93379.39
2018-11-25T00:02:32.071Z,93384.59
2018-11-25T00:04:59.602Z,93385.53
2018-11-25T00:07:34.336Z,93379.64
2018-11-25T00:09:54.825Z,93379.42
2018-11-25T00:12:22.464Z,93376.94
2018-11-25T00:14:50.056Z,93375.92
2018-11-25T00:17:17.684Z,93371.70
2018-11-25T00:19:45.231Z,93365.22
2018-11-25T00:22:12.825Z,93365.85
2018-11-25T00:24:40.372Z,93368.44
2018-11-25T00:27:07.951Z,93363.41
2018-11-25T00:29:35.823Z,93365.62
2018-11-25T00:32:03.445Z,93365.27
2018-11-25T00:34:31.026Z,93366.19
2018-11-25T00:36:58.584Z,93368.09
2018-11-25T00:39:26.181Z,93365.80
2018-11-25T00:41:53.755Z,93358.02
2018-11-25T00:44:21.333Z,93356.38
2018-11-25T00:46:48.941Z,93363.81
2018-11-25T00:49:16.456Z,93358.29
2018-11-25T00:51:44.019Z,93363.45
2018-11-25T00:54:11.568Z,93360.77
2018-11-25T00:56:39.143Z,93349.07
2018-11-25T00:59:06.740Z,93349.07
2018-11-25T01:01:34.271Z,93348.12
2018-11-25T01:04:02.640Z,93342.59
2018-11-25T01:06:30.283Z,93347.06
2018-11-25T01:08:58.280Z,93351.89
2018-11-25T01:11:25.824Z,93345.27
2018-11-25T01:13:53.382Z,93349.18
2018-11-25T01:16:20.980Z,93345.84
2018-11-25T01:18:48.540Z,93353.23
2018-11-25T01:21:16.103Z,93346.77
2018-11-25T01:23:43.671Z,93341.89
2018-11-25T01:26:11.251Z,93345.09
2018-11-25T01:28:38.812Z,93341.55
2018-11-25T01:31:06.351Z,93341.94
2018-11-25T01:33:33.972Z,93341.88
2018-11-25T01:36:01.564Z,93339.96
2018-11-25T01:38:30.203Z,93333.16
2018-11-25T01:40:57.766Z,93336.69
2018-11-25T01:43:25.357Z,93339.23
2018-11-25T01:45:52.932Z,93331.52
2018-11-25T01:48:20.460Z,93325.72
2018-11-25T01:50:48.039Z,93323.13
2018-11-25T01:53:15.649Z,93320.22
2018-11-25T01:55:43.221Z,93315.38
2018-11-25T01:58:10.771Z,93310.53
2018-11-25T02:00:38.319Z,93308.23
2018-11-25T02:03:05.892Z,93303.35
2018-11-25T02:05:33.723Z,93301.09
2018-11-25T02:08:01.388Z,93297.36
2018-11-25T02:10:28.961Z,93296.06
2018-11-25T02:12:57.132Z,93291.04
2018-11-25T02:15:24.659Z,93292.37
2018-11-25T02:17:52.247Z,93287.83
2018-11-25T02:20:21.238Z,93277.81
2018-11-25T02:22:49.097Z,93274.60
2018-11-25T02:25:16.650Z,93268.16
2018-11-25T02:27:44.199Z,93260.88
2018-11-25T02:30:13.452Z,93260.08
2018-11-25T02:32:41.015Z,93256.85
2018-11-25T02:35:09.110Z,93260.08
2018-11-25T02:37:36.679Z,93251.98
2018-11-25T02:40:05.221Z,93247.13
2018-11-25T02:42:32.758Z,93247.80
2018-11-25T02:45:00.278Z,93239.40
2018-11-25T02:47:27.811Z,93241.98
2018-11-25T02:49:55.343Z,93235.21
2018-11-25T02:52:22.889Z,93234.55
2018-11-25T02:54:50.437Z,93236.17
2018-11-25T02:57:22.930Z,93227.11
2018-11-25T02:59:51.096Z,93220.97
2018-11-25T03:02:19.067Z,93211.59
2018-11-25T03:04:46.598Z,93209.17
2018-11-25T03:07:14.152Z,93210.63
2018-11-25T03:09:41.730Z,93212.55
2018-11-25T03:12:09.280Z,93208.02
2018-11-25T03:14:36.844Z,93208.66
2018-11-25T03:17:04.471Z,93212.72
2018-11-25T03:19:32.023Z,93206.24
2018-11-25T03:21:59.568Z,93209.98
2018-11-25T03:24:27.160Z,93204.14
2018-11-25T03:26:54.685Z,93208.98
2018-11-25T03:29:22.251Z,93204.14
2018-11-25T03:31:49.776Z,93195.39
2018-11-25T03:34:17.352Z,93197.34
2018-11-25T03:36:44.905Z,93195.89
2018-11-25T03:39:12.450Z,93189.91
2018-11-25T03:41:40.023Z,93188.94
2018-11-25T03:44:07.620Z,93181.17
2018-11-25T03:46:35.198Z,93193.45
2018-11-25T03:49:02.741Z,93193.13
2018-11-25T03:51:30.282Z,93188.28
2018-11-25T03:53:57.818Z,93187.63
2018-11-25T03:56:25.332Z,93189.41
2018-11-25T03:58:52.960Z,93178.87
2018-11-25T04:01:20.577Z,93174.99
2018-11-25T04:03:48.133Z,93179.54
2018-11-25T04:06:15.691Z,93178.22
2018-11-25T04:08:43.204Z,93181.80
2018-11-25T04:11:10.719Z,93179.84
2018-11-25T04:13:38.263Z,93178.40
2018-11-25T04:16:05.787Z,93172.41
2018-11-25T04:18:33.350Z,93176.31
2018-11-25T04:21:00.928Z,93169.98
2018-11-25T04:23:28.443Z,93164.02
2018-11-25T04:25:55.996Z,93163.05
2018-11-25T04:28:23.535Z,93154.63
2018-11-25T04:30:51.113Z,93152.69
2018-11-25T04:33:18.672Z,93154.96
2018-11-25T04:35:46.229Z,93153.98
2018-11-25T04:38:14.179Z,93148.81
2018-11-25T04:40:41.687Z,93147.34
2018-11-25T04:43:09.203Z,93150.75
2018-11-25T04:45:36.729Z,93151.06
2018-11-25T04:48:04.272Z,93148.14
2018-11-25T04:50:31.815Z,93146.86
2018-11-25T04:52:59.388Z,93150.74
2018-11-25T04:55:27.199Z,93147.81
2018-11-25T04:57:54.730Z,93145.88
2018-11-25T05:00:22.253Z,93152.97
2018-11-25T05:02:50.295Z,93150.69
2018-11-25T05:05:17.852Z,93145.84
2018-11-25T05:07:45.408Z,93144.22
2018-11-25T05:10:13.380Z,93137.78
2018-11-25T05:12:41.351Z,93143.89
2018-11-25T05:15:10.691Z,93143.08
2018-11-25T05:17:38.210Z,93140.61
2018-11-25T05:20:06.812Z,93142.41
2018-11-25T05:22:34.354Z,93143.19
2018-11-25T05:25:02.503Z,93140.56
2018-11-25T05:27:30.056Z,93138.94
2018-11-25T05:29:58.475Z,93133.77
2018-11-25T05:32:26.015Z,93142.14
2018-11-25T05:34:53.563Z,93139.84
2018-11-25T05:37:21.119Z,93138.54
2018-11-25T05:39:48.664Z,93129.92
2018-11-25T05:42:16.192Z,93129.58
2018-11-25T05:44:43.792Z,93128.77
2018-11-25T05:47:11.367Z,93128.05
2018-11-25T05:49:39.043Z,93122.52
2018-11-25T05:52:06.580Z,93129.45
2018-11-25T05:54:34.124Z,93121.51
2018-11-25T05:57:01.992Z,93121.51
2018-11-25T05:59:29.530Z,93122.31
2018-11-25T06:01:57.102Z,93125.37
2018-11-25T06:04:24.627Z,93125.37
2018-11-25T06:06:52.171Z,93120.52
2018-11-25T06:09:19.715Z,93116.47
2018-11-25T06:11:47.237Z,93121.77
2018-11-25T06:14:15.322Z,93113.38
2018-11-25T06:16:42.911Z,93106.89
2018-11-25T06:19:10.432Z,93103.46
2018-11-25T06:21:37.998Z,93109.58
2018-11-25T06:24:05.555Z,93106.17
2018-11-25T06:26:33.363Z,93100.05
2018-11-25T06:29:01.308Z,93099.05
2018-11-25T06:31:28.859Z,93088.87
2018-11-25T06:33:56.759Z,93096.18
2018-11-25T06:36:24.316Z,93090.84
2018-11-25T06:38:51.899Z,93093.89
2018-11-25T06:41:19.455Z,93089.48
2018-11-25T06:43:47.039Z,93094.30
2018-11-25T06:46:14.615Z,93083.91
2018-11-25T06:48:42.195Z,93085.13
2018-11-25T06:51:09.775Z,93080.12
2018-11-25T06:53:37.320Z,93081.75
2018-11-25T06:56:04.888Z,93075.77
2018-11-25T06:58:32.468Z,93073.51
2018-11-25T07:01:00.053Z,93074.00
2018-11-25T07:03:27.617Z,93067.53
2018-11-25T07:05:55.156Z,93072.84
2018-11-25T07:08:22.730Z,93072.08
2018-11-25T07:10:50.266Z,93069.43
2018-11-25T07:13:17.883Z,93074.41
2018-11-25T07:15:45.453Z,93063.20
2018-11-25T07:18:12.978Z,93069.41
2018-11-25T07:20:40.810Z,93070.70
2018-11-25T07:23:08.361Z,93071.07
2018-11-25T07:25:35.931Z,93073.66
2018-11-25T07:28:18.017Z,93066.56
2018-11-25T07:30:31.187Z,93067.53
2018-11-25T07:32:58.771Z,93064.97
2018-11-25T07:35:26.840Z,93058.55
2018-11-25T07:37:54.447Z,93061.14
2018-11-25T07:40:22.334Z,93062.77
2018-11-25T07:42:49.896Z,93054.98
2018-11-25T07:45:18.914Z,93053.96
2018-11-25T07:47:46.442Z,93052.78
2018-11-25T07:50:14.085Z,93042.89
2018-11-25T07:52:42.451Z,93043.52
2018-11-25T07:55:11.663Z,93038.91
2018-11-25T07:57:39.322Z,93032.72
2018-11-25T08:00:09.272Z,93019.95
2018-11-25T08:02:41.385Z,93024.29
2018-11-25T08:05:05.356Z,93021.31
2018-11-25T08:07:32.978Z,93010.38
2018-11-25T08:10:00.955Z,93002.47
2018-11-25T08:12:28.825Z,93002.70
2018-11-25T08:14:56.394Z,92997.33
2018-11-25T08:17:23.973Z,92994.50
2018-11-25T08:19:51.562Z,92991.22
2018-11-25T08:22:19.152Z,92990.16
2018-11-25T08:24:46.726Z,92988.91
2018-11-25T08:27:14.293Z,92975.00
2018-11-25T08:29:41.839Z,92975.14
2018-11-25T08:32:09.416Z,92972.66
2018-11-25T08:34:37.006Z,92964.92
2018-11-25T08:37:05.128Z,92967.95
2018-11-25T08:39:32.922Z,92953.61
2018-11-25T08:42:00.969Z,92957.36
2018-11-25T08:44:28.568Z,92947.76
2018-11-25T08:46:56.141Z,92949.14
2018-11-25T08:49:23.761Z,92939.36
2018-11-25T08:51:51.311Z,92937.34
2018-11-25T08:54:19.625Z,92934.91
2018-11-25T08:56:47.718Z,92932.73
2018-11-25T08:59:15.366Z,92932.83
2018-11-25T09:01:42.967Z,92925.76
2018-11-25T09:04:10.539Z,92914.58
2018-11-25T09:06:38.203Z,92915.25
2018-11-25T09:09:07.036Z,92913.84
2018-11-25T09:11:34.644Z,92904.83
2018-11-25T09:14:02.244Z,92905.37
2018-11-25T09:16:29.849Z,92899.77
2018-11-25T09:18:57.431Z,92893.84
2018-11-25T09:21:25.038Z,92897.02
2018-11-25T09:23:52.642Z,92891.90
2018-11-25T09:26:20.264Z,92893.84
2018-11-25T09:28:47.876Z,92888.27
2018-11-25T09:31:16.467Z,92885.97
2018-11-25T09:33:44.147Z,92879.48
2018-11-25T09:36:11.773Z,92876.58
2018-11-25T09:38:39.372Z,92877.06
2018-11-25T09:41:07.040Z,92875.08
2018-11-25T09:43:35.297Z,92869.75
2018-11-25T09:46:02.931Z,92863.44
2018-11-25T09:48:30.520Z,92856.69
2018-11-25T09:50:58.463Z,92858.52
2018-11-25T09:53:26.047Z,92866.74
2018-11-25T09:55:53.681Z,92861.49
2018-11-25T09:58:25.451Z,92861.91
2018-11-25T10:00:48.874Z,92857.14
2018-11-25T10:03:16.502Z,92861.27
2018-11-25T10:05:44.085Z,92856.00
2018-11-25T10:08:11.717Z,92853.63
2018-11-25T10:10:39.648Z,92843.57
2018-11-25T10:13:07.319Z,92841.25
2018-11-25T10:15:34.898Z,92833.44
2018-11-25T10:18:02.626Z,92834.03
2018-11-25T10:20:30.680Z,92834.77
2018-11-25T10:22:58.324Z,92822.86
2018-11-25T10:25:25.917Z,92819.93
2018-11-25T10:27:53.568Z,92815.12
2018-11-25T10:30:21.958Z,92821.35
2018-11-25T10:32:50.276Z,92813.37
2018-11-25T10:35:17.865Z,92798.62
2018-11-25T10:37:45.792Z,92805.11
2018-11-25T10:40:15.141Z,92811.72
2018-11-25T10:42:42.720Z,92806.94
2018-11-25T10:45:14.834Z,92810.50
2018-11-25T10:47:42.441Z,92805.54
2018-11-25T10:50:13.602Z,92805.27
2018-11-25T10:52:41.250Z,92803.55
2018-11-25T10:55:09.391Z,92803.48
2018-11-25T10:57:36.988Z,92799.71
2018-11-25T11:00:09.813Z,92793.66
2018-11-25T11:02:43.387Z,92796.38
2018-11-25T11:05:15.525Z,92782.44
2018-11-25T11:07:44.908Z,92782.89
2018-11-25T11:10:12.533Z,92784.79
2018-11-25T11:12:40.104Z,92777.18
2018-11-25T11:15:09.276Z,92774.34
2018-11-25T11:17:36.842Z,92773.19
2018-11-25T11:20:05.852Z,92770.78
2018-11-25T11:22:33.444Z,92774.08
2018-11-25T11:25:01.024Z,92773.31
2018-11-25T11:27:28.616Z,92772.52
2018-11-25T11:29:56.199Z,92761.92
2018-11-25T11:32:23.771Z,92769.57
2018-11-25T11:34:51.690Z,92764.84
2018-11-25T11:37:19.311Z,92766.20
2018-11-25T11:39:46.866Z,92767.77
2018-11-25T11:42:14.453Z,92774.16
2018-11-25T11:44:42.129Z,92775.27
2018-11-25T11:47:09.720Z,92772.94
2018-11-25T11:49:37.284Z,92770.20
2018-11-25T11:52:05.152Z,92765.76
2018-11-25T11:54:32.755Z,92755.14
2018-11-25T11:57:00.348Z,92761.39
2018-11-25T11:59:27.952Z,92752.37
2018-11-25T12:01:55.517Z,92748.86
2018-11-25T12:04:23.139Z,92744.80
2018-11-25T12:06:50.739Z,92745.75
2018-11-25T12:09:18.409Z,92749.27
2018-11-25T12:11:45.980Z,92744.55
2018-11-25T12:14:13.552Z,92739.20
2018-11-25T12:16:41.153Z,92732.92
2018-11-25T12:19:08.753Z,92736.09
2018-11-25T12:21:36.315Z,92734.08
2018-11-25T12:24:03.913Z,92732.55
2018-11-25T12:26:31.509Z,92738.64
2018-11-25T12:28:59.084Z,92730.80
2018-11-25T12:31:26.717Z,92730.27
2018-11-25T12:33:54.260Z,92734.85
2018-11-25T12:36:21.874Z,92730.80
2018-11-25T12:38:49.484Z,92739.48
2018-11-25T12:41:17.076Z,92728.93
2018-11-25T12:43:44.631Z,92717.07
2018-11-25T12:46:12.309Z,92717.69
2018-11-25T12:48:39.963Z,92724.58
2018-11-25T12:51:07.560Z,92722.93
2018-11-25T12:53:35.196Z,92715.38
2018-11-25T12:56:02.831Z,92718.38
2018-11-25T12:58:30.401Z,92712.20
2018-11-25T13:00:58.347Z,92712.84
2018-11-25T13:03:26.099Z,92711.73
2018-11-25T13:05:53.679Z,92705.33
2018-11-25T13:08:21.265Z,92709.09
2018-11-25T13:10:48.830Z,92713.51
2018-11-25T13:13:16.417Z,92708.44
2018-11-25T13:15:43.975Z,92703.08
2018-11-25T13:18:11.577Z,92700.70
2018-11-25T13:20:39.149Z,92702.30
2018-11-25T13:23:06.760Z,92697.91
2018-11-25T13:25:34.383Z,92698.91
2018-11-25T13:28:01.967Z,92698.34
2018-11-25T13:30:30.626Z,92700.78
2018-11-25T13:32:58.867Z,92701.78
2018-11-25T13:35:27.809Z,92695.14
2018-11-25T13:37:54.736Z,92696.43
2018-11-25T13:40:22.342Z,92695.67
2018-11-25T13:42:49.887Z,92692.20
2018-11-25T13:45:17.459Z,92696.06
2018-11-25T13:47:45.049Z,92695.27
2018-11-25T13:50:12.631Z,92699.52
2018-11-25T13:52:40.290Z,92697.14
2018-11-25T13:55:08.778Z,92698.34
2018-11-25T13:57:36.372Z,92699.75
2018-11-25T14:00:06.159Z,92707.48
2018-11-25T14:02:34.016Z,92703.56
2018-11-25T14:05:01.607Z,92709.81
2018-11-25T14:07:29.208Z,92710.31
2018-11-25T14:09:56.783Z,92709.63
2018-11-25T14:12:24.894Z,92719.83
2018-11-25T14:14:52.538Z,92710.23
2018-11-25T14:17:20.103Z,92712.64
2018-11-25T14:19:47.772Z,92712.23
2018-11-25T14:22:15.316Z,92702.98
2018-11-25T14:24:42.939Z,92704.59
2018-11-25T14:27:10.507Z,92698.08
2018-11-25T14:29:38.425Z,92696.97
2018-11-25T14:32:06.142Z,92688.55
2018-11-25T14:34:33.728Z,92694.66
2018-11-25T14:37:02.175Z,92696.38
2018-11-25T14:39:29.740Z,92701.18
2018-11-25T14:41:57.319Z,92700.18
2018-11-25T14:44:25.543Z,92699.57
2018-11-25T14:46:53.115Z,92701.16
2018-11-25T14:49:20.713Z,92703.78
2018-11-25T14:51:48.259Z,92692.95
2018-11-25T14:54:15.862Z,92698.64
2018-11-25T14:56:43.535Z,92701.33
2018-11-25T14:59:11.164Z,92704.93
2018-11-25T15:01:38.725Z,92699.72
2018-11-25T15:04:06.328Z,92703.62
2018-11-25T15:06:33.891Z,92711.55
2018-11-25T15:09:01.449Z,92707.13
2018-11-25T15:11:29.065Z,92704.13
2018-11-25T15:13:56.915Z,92701.50
2018-11-25T15:16:24.521Z,92699.09
2018-11-25T15:18:52.180Z,92696.06
2018-11-25T15:21:19.792Z,92693.67
2018-11-25T15:23:47.574Z,92695.14
2018-11-25T15:26:16.206Z,92694.19
2018-11-25T15:28:43.904Z,92693.17
2018-11-25T15:31:11.807Z,92690.34
2018-11-25T15:33:39.443Z,92689.76
2018-11-25T15:36:07.040Z,92693.13
2018-11-25T15:38:34.604Z,92694.44
2018-11-25T15:41:02.520Z,92697.57
2018-11-25T15:43:30.157Z,92689.11
2018-11-25T15:45:57.721Z,92690.06
2018-11-25T15:48:26.909Z,92687.55
2018-11-25T15:50:54.070Z,92683.09
2018-11-25T15:53:21.743Z,92683.43
2018-11-25T15:55:50.157Z,92684.42
2018-11-25T15:58:18.851Z,92679.98
2018-11-25T16:00:46.483Z,92680.75
2018-11-25T16:03:14.427Z,92680.49
2018-11-25T16:05:43.881Z,92678.52
2018-11-25T16:08:11.527Z,92675.25
2018-11-25T16:10:39.134Z,92680.23
2018-11-25T16:13:07.397Z,92679.20
2018-11-25T16:15:35.264Z,92688.62
2018-11-25T16:18:02.855Z,92682.88
2018-11-25T16:20:30.452Z,92688.61
2018-11-25T16:22:58.803Z,92678.98
2018-11-25T16:25:27.152Z,92684.98
2018-11-25T16:27:56.746Z,92685.44
2018-11-25T16:30:24.403Z,92688.70
2018-11-25T16:32:51.969Z,92688.39
2018-11-25T16:35:19.604Z,92697.19
2018-11-25T16:37:47.586Z,92690.31
2018-11-25T16:40:16.286Z,92681.07
2018-11-25T16:42:43.961Z,92682.11
2018-11-25T16:45:12.212Z,92684.87
2018-11-25T16:47:39.902Z,92676.34
2018-11-25T16:50:08.680Z,92677.41
2018-11-25T16:52:36.493Z,92680.84
2018-11-25T16:55:04.841Z,92681.78
2018-11-25T16:57:32.698Z,92691.47
2018-11-25T17:00:00.371Z,92685.29
2018-11-25T17:02:27.974Z,92680.45
2018-11-25T17:04:55.588Z,92689.39
2018-11-25T17:07:23.206Z,92689.27
2018-11-25T17:09:51.804Z,92689.02
2018-11-25T17:12:19.451Z,92689.27
2018-11-25T17:14:47.067Z,92682.70
2018-11-25T17:17:14.721Z,92683.70
2018-11-25T17:19:42.336Z,92683.32
2018-11-25T17:22:09.972Z,92681.86
2018-11-25T17:24:37.590Z,92690.16
2018-11-25T17:27:05.173Z,92686.96
2018-11-25T17:29:32.786Z,92686.60
2018-11-25T17:32:00.356Z,92681.35
2018-11-25T17:34:27.965Z,92686.79
2018-11-25T17:36:55.537Z,92686.47
2018-11-25T17:39:23.118Z,92683.66
2018-11-25T17:41:50.752Z,92687.52
2018-11-25T17:44:18.365Z,92690.05
2018-11-25T17:46:45.989Z,92693.74
2018-11-25T17:49:13.964Z,92701.64
2018-11-25T17:51:41.579Z,92703.98
2018-11-25T17:54:09.194Z,92707.28
2018-11-25T17:56:37.228Z,92699.58
2018-11-25T17:59:06.013Z,92697.80
2018-11-25T18:01:33.766Z,92696.72
2018-11-25T18:04:02.045Z,92688.00
2018-11-25T18:06:29.629Z,92696.79
2018-11-25T18:08:57.636Z,92702.54
2018-11-25T18:11:25.313Z,92692.48
2018-11-25T18:13:52.890Z,92696.73
2018-11-25T18:16:20.549Z,92701.99
2018-11-25T18:18:50.061Z,92704.91
2018-11-25T18:21:24.965Z,92710.16
2018-11-25T18:23:52.651Z,92709.23
2018-11-25T18:26:20.271Z,92713.80
2018-11-25T18:28:47.941Z,92717.38
2018-11-25T18:31:15.503Z,92715.60
2018-11-25T18:33:43.127Z,92720.27
2018-11-25T18:36:11.758Z,92719.58
2018-11-25T18:38:39.457Z,92719.90
2018-11-25T18:41:07.133Z,92731.87
2018-11-25T18:43:34.809Z,92717.67
2018-11-25T18:46:02.649Z,92717.95
2018-11-25T18:48:30.819Z,92718.73
2018-11-25T18:50:58.525Z,92718.53
2018-11-25T18:53:26.176Z,92716.88
2018-11-25T18:55:53.840Z,92706.81
2018-11-25T18:58:21.893Z,92713.24
2018-11-25T19:01:55.407Z,92712.22
2018-11-25T19:04:23.295Z,92709.91
2018-11-25T19:06:50.897Z,92698.59
2018-11-25T19:09:18.531Z,92695.41
2018-11-25T19:11:46.204Z,92696.33
2018-11-25T19:14:13.870Z,92688.14
2018-11-25T19:16:41.425Z,92689.42
2018-11-25T19:19:09.354Z,92682.63
2018-11-25T19:21:36.958Z,92679.62
2018-11-25T19:24:05.513Z,92674.22
2018-11-25T19:26:33.177Z,92678.32
2018-11-25T19:29:00.789Z,92669.53
2018-11-25T19:31:28.401Z,92676.66
2018-11-25T19:33:56.069Z,92677.78
2018-11-25T19:36:23.674Z,92676.37
2018-11-25T19:38:51.299Z,92670.56
2018-11-25T19:41:18.929Z,92667.27
2018-11-25T19:43:46.512Z,92667.00
2018-11-25T19:46:14.229Z,92665.05
2018-11-25T19:48:43.407Z,92665.00
2018-11-25T19:51:17.420Z,92661.39
2018-11-25T19:53:38.744Z,92662.03
2018-11-25T19:56:06.635Z,92666.57
2018-11-25T19:58:34.253Z,92668.28
2018-11-25T20:01:02.038Z,92657.34
2018-11-25T20:03:30.810Z,92653.08
2018-11-25T20:05:58.497Z,92654.48
2018-11-25T20:08:26.096Z,92656.80
2018-11-25T20:10:53.684Z,92659.88
2018-11-25T20:13:21.282Z,92662.34
2018-11-25T20:15:48.897Z,92665.41
2018-11-25T20:18:16.510Z,92673.84
2018-11-25T20:20:48.647Z,92673.42
2018-11-25T20:23:16.309Z,92678.11
2018-11-25T20:25:43.899Z,92682.59
2018-11-25T20:28:11.521Z,92682.16
2018-11-25T20:30:39.101Z,92677.89
2018-11-25T20:33:12.417Z,92681.61
2018-11-25T20:35:40.361Z,92690.84
2018-11-25T20:38:13.622Z,92695.20
2018-11-25T20:40:41.252Z,92690.09
2018-11-25T20:43:08.824Z,92685.56
2018-11-25T20:45:41.864Z,92688.91
2018-11-25T20:48:09.512Z,92689.92
2018-11-25T20:50:37.141Z,92696.19
2018-11-25T20:53:10.487Z,92701.37
2018-11-25T20:55:38.127Z,92707.03
2018-11-25T20:58:06.934Z,92708.66
2018-11-25T21:00:34.566Z,92703.05
2018-11-25T21:03:02.168Z,92705.20
2018-11-25T21:05:30.134Z,92702.81
2018-11-25T21:07:57.707Z,92693.95
2018-11-25T21:10:26.191Z,92696.83
2018-11-25T21:12:53.598Z,92695.20
2018-11-25T21:15:21.205Z,92692.41
2018-11-25T21:17:48.850Z,92701.20
2018-11-25T21:20:17.225Z,92697.53
2018-11-25T21:22:44.889Z,92701.78
2018-11-25T21:25:14.008Z,92692.77
2018-11-25T21:27:41.602Z,92691.27
2018-11-25T21:30:10.014Z,92693.80
2018-11-25T21:32:43.898Z,92684.16
2018-11-25T21:35:12.179Z,92680.37
2018-11-25T21:37:39.785Z,92670.14
2018-11-25T21:40:11.112Z,92676.36
2018-11-25T21:42:38.978Z,92673.77
2018-11-25T21:45:07.516Z,92681.17
2018-11-25T21:47:35.077Z,92681.98
2018-11-25T21:50:02.727Z,92674.03
2018-11-25T21:52:30.312Z,92666.26
2018-11-25T21:54:57.889Z,92661.34
2018-11-25T21:57:25.518Z,92658.70
2018-11-25T21:59:53.164Z,92657.14
2018-11-25T22:02:21.667Z,92655.52
2018-11-25T22:04:49.081Z,92650.16
2018-11-25T22:07:16.674Z,92654.55
2018-11-25T22:09:44.252Z,92660.09
2018-11-25T22:12:11.817Z,92656.47
2018-11-25T22:14:39.474Z,92654.80
2018-11-25T22:17:07.085Z,92659.98
2018-11-25T22:19:34.646Z,92661.87
2018-11-25T22:22:02.253Z,92659.67
2018-11-25T22:24:29.835Z,92663.56
2018-11-25T22:26:57.419Z,92665.89
2018-11-25T22:29:25.045Z,92667.67
2018-11-25T22:31:52.602Z,92659.98
2018-11-25T22:34:20.181Z,92660.95
2018-11-25T22:36:47.814Z,92665.09
2018-11-25T22:39:15.432Z,92672.55
2018-11-25T22:41:43.034Z,92670.94
2018-11-25T22:44:10.631Z,92664.12
2018-11-25T22:46:38.195Z,92665.44
2018-11-25T22:49:05.810Z,92660.25
2018-11-25T22:51:33.424Z,92657.77
2018-11-25T22:54:00.979Z,92657.00
2018-11-25T22:56:28.573Z,92655.98
2018-11-25T22:58:56.163Z,92662.13
2018-11-25T23:01:23.725Z,92663.11
2018-11-25T23:03:56.872Z,92661.87
2018-11-25T23:07:00.216Z,92663.94
2018-11-25T23:09:27.876Z,92664.06
2018-11-25T23:11:55.553Z,92670.54
2018-11-25T23:14:23.161Z,92665.16
2018-11-25T23:16:50.739Z,92667.75
2018-11-25T23:19:18.348Z,92669.05
2018-11-25T23:21:45.903Z,92665.75
2018-11-25T23:24:13.485Z,92657.58
2018-11-25T23:26:41.077Z,92661.52
2018-11-25T23:29:08.670Z,92661.76
2018-11-25T23:31:36.224Z,92652.52
2018-11-25T23:34:04.736Z,92644.53
2018-11-25T23:36:32.999Z,92645.73
2018-11-25T23:39:00.696Z,92635.69
2018-11-25T23:41:28.663Z,92635.78
2018-11-25T23:43:56.215Z,92626.67
2018-11-25T23:46:23.743Z,92630.50
2018-11-25T23:48:51.311Z,92638.64
2018-11-25T23:51:18.900Z,92634.39
2018-11-25T23:53:46.460Z,92636.32
2018-11-25T23:56:14.057Z,92628.55
2018-11-25T23:58:41.635Z,92628.28
